Terminal Aerodrome Forecast
Issued by NWS

Home | Current Version | Previous Version | Text Only | Print | Product List | Glossary On
Versions: 1 2 3 4 5 6 7 8 9 10 11 12 13 14 15 16 17
000
FTUS42 KTBW 241737
TAFPIE
TAF
KPIE 241737Z 2418/2518 06007KT P6SM VCTS SCT030CB BKN045
      TEMPO 2418/2422 VRB15G25KT 2SM +TSRA BKN025CB
     FM242200 21007KT P6SM VCTS SCT035CB BKN120 OVC250
     FM250300 15005KT P6SM SCT120 BKN250
     FM250600 14003KT P6SM FEW120 SCT250
     FM251600 15008KT P6SM VCTS SCT035CB SCT250=

USA.gov is the U.S. government's official web portal to all federal, state and local government web resources and services.